Time;durP1;ratioP1;P1;durP2;ratioP2;P2;SDS_P1;SDS_P2;PMS_P1;PMS_P2;Temp;Humidity;BMP_temperature;BMP_pressure;BME280_temperature;BME280_humidity;BME280_pressure;Samples;Min_cycle;Max_cycle;Signal;HPM_P1;HPM_P2
2024/04/03 00:01:45;;;;;;;0.30;0.20;;;7.30;99.90;;;;;;5048812;28;20211;-60
2024/04/03 00:04:12;;;;;;;0.20;0.20;;;7.20;99.90;;;;;;5049226;28;20207;-60
2024/04/03 00:06:39;;;;;;;1.03;0.20;;;7.20;99.90;;;;;;5051539;28;20698;-60
2024/04/03 00:09:05;;;;;;;0.50;0.17;;;7.20;99.90;;;;;;5050712;28;20204;-59
2024/04/03 00:11:33;;;;;;;0.47;0.20;;;7.30;99.90;;;;;;5047538;28;20642;-59
2024/04/03 00:13:59;;;;;;;2.07;0.20;;;7.20;99.90;;;;;;5047250;28;20202;-60
2024/04/03 00:16:26;;;;;;;0.20;0.20;;;7.20;99.90;;;;;;5050517;28;20238;-59
2024/04/03 00:18:52;;;;;;;0.20;0.20;;;7.30;99.90;;;;;;5048416;28;20677;-60
2024/04/03 00:21:19;;;;;;;0.20;0.20;;;7.30;99.90;;;;;;5051276;28;20206;-60
2024/04/03 00:23:45;;;;;;;0.87;0.20;;;7.30;99.90;;;;;;5040799;28;20203;-59
2024/04/03 00:26:12;;;;;;;0.70;0.20;;;7.20;99.90;;;;;;5045586;28;20223;-59
2024/04/03 00:28:39;;;;;;;1.70;0.20;;;7.10;99.90;;;;;;5047122;28;20234;-59
2024/04/03 00:31:07;;;;;;;0.30;0.10;;;7.20;99.90;;;;;;5049726;28;20212;-59
2024/04/03 00:33:33;;;;;;;0.77;0.20;;;7.20;99.90;;;;;;5051127;28;20226;-60
2024/04/03 00:36:01;;;;;;;0.40;0.20;;;7.20;99.90;;;;;;5048679;28;20215;-59
2024/04/03 00:38:27;;;;;;;0.10;0.10;;;7.10;99.90;;;;;;5048368;28;20204;-60
2024/04/03 00:40:56;;;;;;;0.77;0.30;;;7.20;99.90;;;;;;5051530;28;20283;-59
2024/04/03 00:43:22;;;;;;;0.90;0.13;;;7.20;99.90;;;;;;5049089;28;20196;-59
2024/04/03 00:45:51;;;;;;;0.10;0.10;;;7.20;99.90;;;;;;5049938;28;20225;-60
2024/04/03 00:48:17;;;;;;;0.10;0.10;;;7.20;99.90;;;;;;5049166;28;20207;-59
2024/04/03 00:50:46;;;;;;;0.10;0.10;;;7.20;99.90;;;;;;5045561;28;20195;-60
2024/04/03 00:53:13;;;;;;;0.50;0.10;;;7.30;99.90;;;;;;5050460;28;20219;-60
2024/04/03 00:55:41;;;;;;;0.13;0.10;;;7.30;99.90;;;;;;5048196;28;20223;-59
2024/04/03 00:58:07;;;;;;;0.10;0.10;;;7.30;99.90;;;;;;5048670;28;20917;-59
2024/04/03 01:00:35;;;;;;;0.10;0.10;;;7.40;99.90;;;;;;5049824;28;20288;-60
2024/04/03 01:03:03;;;;;;;0.13;0.10;;;7.40;99.90;;;;;;5048778;28;20621;-59
2024/04/03 01:05:31;;;;;;;0.10;0.10;;;7.30;99.90;;;;;;5049467;28;20230;-59
2024/04/03 01:07:58;;;;;;;0.10;0.10;;;7.40;99.90;;;;;;5047128;28;20248;-60
2024/04/03 01:10:26;;;;;;;0.67;0.20;;;7.20;99.90;;;;;;5049732;28;20230;-59
2024/04/03 01:12:54;;;;;;;0.30;0.20;;;7.20;99.90;;;;;;5048773;28;20351;-60
2024/04/03 01:15:21;;;;;;;0.40;0.10;;;7.10;99.90;;;;;;5050850;28;20265;-60
2024/04/03 01:17:47;;;;;;;0.60;0.13;;;7.10;99.90;;;;;;5040030;28;20467;-68
2024/04/03 01:20:16;;;;;;;0.53;0.30;;;7.10;99.90;;;;;;5046673;28;20740;-58
2024/04/03 01:22:42;;;;;;;0.20;0.20;;;7.10;99.90;;;;;;5049228;28;20661;-60
2024/04/03 01:25:10;;;;;;;1.60;0.20;;;7.10;99.90;;;;;;5047508;28;20211;-61
2024/04/03 01:27:37;;;;;;;0.23;0.10;;;7.10;99.90;;;;;;5049011;28;20203;-59
2024/04/03 01:30:04;;;;;;;0.20;0.20;;;7.10;99.90;;;;;;5051081;28;20663;-60
2024/04/03 01:32:31;;;;;;;0.20;0.20;;;7.20;99.90;;;;;;5049961;28;20247;-60
2024/04/03 01:34:57;;;;;;;0.20;0.20;;;7.10;99.90;;;;;;5043159;28;20221;-59
2024/04/03 01:37:24;;;;;;;1.40;0.10;;;7.10;99.90;;;;;;5045842;28;20207;-61
2024/04/03 01:39:49;;;;;;;9.70;0.23;;;7.20;99.90;;;;;;5041790;28;20199;-60
2024/04/03 01:42:20;;;;;;;0.50;0.10;;;7.30;99.90;;;;;;5049397;28;20207;-60
2024/04/03 01:44:47;;;;;;;0.20;0.20;;;7.30;99.90;;;;;;5048789;28;20310;-62
2024/04/03 01:47:14;;;;;;;0.53;0.53;;;7.30;99.90;;;;;;5043253;28;20199;-61
2024/04/03 01:49:40;;;;;;;0.10;0.10;;;7.30;99.90;;;;;;5048272;28;20204;-63
2024/04/03 01:52:07;;;;;;;0.57;0.30;;;7.30;99.90;;;;;;5048091;28;20229;-61
2024/04/03 01:54:33;;;;;;;0.80;0.50;;;7.20;99.90;;;;;;5051321;28;20220;-61
2024/04/03 01:57:00;;;;;;;2.83;0.50;;;7.10;99.90;;;;;;5049295;28;20624;-61
2024/04/03 01:59:27;;;;;;;0.43;0.43;;;6.90;99.90;;;;;;5045273;28;20211;-63
2024/04/03 02:01:54;;;;;;;0.50;0.40;;;6.70;99.90;;;;;;5047038;28;20252;-62
2024/04/03 02:04:20;;;;;;;0.33;0.30;;;6.60;99.90;;;;;;5048127;28;20232;-59
2024/04/03 02:06:47;;;;;;;1.05;0.88;;;6.60;99.90;;;;;;5049206;28;20593;-61
2024/04/03 02:09:13;;;;;;;2.00;0.57;;;6.60;99.90;;;;;;5043376;28;20671;-61
2024/04/03 02:11:40;;;;;;;0.53;0.40;;;6.60;99.90;;;;;;5050733;28;20264;-62
2024/04/03 02:14:09;;;;;;;0.40;0.40;;;6.50;99.90;;;;;;5050947;28;20203;-61
2024/04/03 02:16:37;;;;;;;0.40;0.40;;;6.40;99.90;;;;;;5051916;28;20237;-61
2024/04/03 02:19:03;;;;;;;0.33;0.33;;;6.40;99.90;;;;;;5041236;28;20214;-61
2024/04/03 02:21:30;;;;;;;0.80;0.60;;;6.30;99.90;;;;;;5055030;28;20196;-61
2024/04/03 02:23:56;;;;;;;0.30;0.30;;;6.20;99.90;;;;;;5054959;28;20207;-63
2024/04/03 02:26:23;;;;;;;0.93;0.30;;;6.30;99.90;;;;;;5054968;28;20216;-61
2024/04/03 02:28:49;;;;;;;0.43;0.43;;;6.20;99.90;;;;;;5045774;28;20196;-61
2024/04/03 02:31:16;;;;;;;0.77;0.60;;;6.10;99.90;;;;;;5055003;28;20203;-61
2024/04/03 02:33:44;;;;;;;0.93;0.60;;;6.10;99.90;;;;;;5054715;28;20232;-61
2024/04/03 02:36:12;;;;;;;0.60;0.60;;;6.00;99.90;;;;;;5054600;28;20225;-61
2024/04/03 02:38:38;;;;;;;0.40;0.37;;;6.00;99.90;;;;;;5053851;28;20200;-61
2024/04/03 02:41:05;;;;;;;0.50;0.50;;;6.00;99.90;;;;;;5054679;28;20559;-61
2024/04/03 02:43:31;;;;;;;0.40;0.40;;;6.00;99.90;;;;;;5046304;28;20237;-61
2024/04/03 02:45:58;;;;;;;1.20;0.40;;;6.00;99.90;;;;;;5054443;28;20222;-61
2024/04/03 02:48:24;;;;;;;0.70;0.70;;;6.00;99.90;;;;;;5053615;28;20232;-61
2024/04/03 02:51:01;;;;;;;0.67;0.50;;;6.10;99.90;;;;;;5054119;28;20201;-62
2024/04/03 02:53:27;;;;;;;0.30;0.30;;;6.10;99.90;;;;;;5054620;28;20589;-61
2024/04/03 02:55:54;;;;;;;0.30;0.30;;;6.10;99.90;;;;;;5054572;28;20245;-61
2024/04/03 02:58:20;;;;;;;2.23;0.40;;;6.10;99.90;;;;;;5052444;28;20203;-61
2024/04/03 03:00:57;;;;;;;0.30;0.30;;;6.10;99.90;;;;;;5054051;28;20192;-61
2024/04/03 03:03:26;;;;;;;0.27;0.27;;;6.10;99.90;;;;;;5054184;28;20233;-61
2024/04/03 03:05:54;;;;;;;0.73;0.20;;;6.00;99.90;;;;;;5053948;28;20292;-61
2024/04/03 03:08:20;;;;;;;0.33;0.30;;;6.10;99.90;;;;;;5053262;28;20291;-61
2024/04/03 03:10:47;;;;;;;0.23;0.23;;;6.10;99.90;;;;;;5054003;28;20232;-61
2024/04/03 03:13:13;;;;;;;0.37;0.30;;;6.10;99.90;;;;;;5054585;28;20285;-61
2024/04/03 03:15:40;;;;;;;0.20;0.20;;;6.00;99.90;;;;;;5046900;28;20212;-62
2024/04/03 03:18:06;;;;;;;0.30;0.30;;;6.00;99.90;;;;;;5054000;28;20203;-61
2024/04/03 03:20:33;;;;;;;0.30;0.30;;;5.90;99.90;;;;;;5053779;28;20207;-61
2024/04/03 03:23:01;;;;;;;1.13;0.30;;;6.00;99.90;;;;;;5054131;28;20261;-61
2024/04/03 03:25:28;;;;;;;0.57;0.30;;;6.10;99.90;;;;;;5055115;28;20223;-61
2024/04/03 03:27:54;;;;;;;0.67;0.20;;;6.10;99.90;;;;;;5048166;28;20203;-61
2024/04/03 03:30:21;;;;;;;1.43;0.47;;;6.10;99.90;;;;;;5049180;28;20191;-61
2024/04/03 03:32:47;;;;;;;0.20;0.20;;;6.00;99.90;;;;;;5053979;28;20305;-61
2024/04/03 03:35:14;;;;;;;0.30;0.30;;;6.00;99.90;;;;;;5050302;28;20716;-61
2024/04/03 03:37:41;;;;;;;0.73;0.50;;;6.00;99.90;;;;;;5049449;28;20257;-61
2024/04/03 03:40:10;;;;;;;1.07;0.70;;;6.00;99.90;;;;;;5045534;28;20200;-61
2024/04/03 03:42:37;;;;;;;0.30;0.30;;;6.00;99.90;;;;;;5053402;28;20556;-61
2024/04/03 03:45:05;;;;;;;1.17;0.30;;;6.10;99.90;;;;;;5053306;28;20228;-61
2024/04/03 03:47:31;;;;;;;0.27;0.27;;;6.00;99.90;;;;;;5052674;28;20261;-61
2024/04/03 03:52:56;;;;;;;0.77;0.77;;;6.10;99.90;;;;;;5008215;28;20348;-61
2024/04/03 03:55:27;;;;;;;0.60;0.60;;;6.10;99.90;;;;;;5002893;28;21089;-61
2024/04/03 03:57:59;;;;;;;2.87;0.90;;;6.00;99.90;;;;;;5009908;28;20250;-61
2024/04/03 04:00:26;;;;;;;1.20;1.00;;;6.00;99.90;;;;;;5046640;28;20198;-61
2024/04/03 04:02:54;;;;;;;0.90;0.70;;;5.90;99.90;;;;;;5051294;28;20203;-61
2024/04/03 04:05:20;;;;;;;0.80;0.80;;;5.90;99.90;;;;;;5052830;28;20666;-61
2024/04/03 04:07:48;;;;;;;0.90;0.60;;;5.90;99.90;;;;;;5050786;28;20286;-61
2024/04/03 04:10:14;;;;;;;1.17;0.63;;;5.80;99.90;;;;;;5051000;28;20745;-62
2024/04/03 04:12:43;;;;;;;0.73;0.50;;;5.80;99.90;;;;;;5052913;28;20308;-62
2024/04/03 04:15:09;;;;;;;0.77;0.63;;;5.70;99.90;;;;;;5052583;28;20754;-62
2024/04/03 04:17:36;;;;;;;0.67;0.67;;;5.70;99.90;;;;;;5051981;28;20295;-62
2024/04/03 04:20:07;;;;;;;2.33;0.77;;;5.80;99.90;;;;;;5052457;28;20415;-61
2024/04/03 04:22:34;;;;;;;2.10;0.53;;;5.80;99.90;;;;;;5052687;28;20235;-62
2024/04/03 04:25:02;;;;;;;2.10;0.60;;;5.80;99.90;;;;;;5051094;28;20231;-61
2024/04/03 04:27:29;;;;;;;1.33;0.40;;;5.90;99.90;;;;;;5051829;28;20192;-62
2024/04/03 04:29:57;;;;;;;1.00;0.90;;;5.90;99.90;;;;;;5047290;28;20198;-61
2024/04/03 04:32:24;;;;;;;1.10;1.00;;;5.80;99.90;;;;;;5048655;28;20630;-62
2024/04/03 04:34:50;;;;;;;2.47;1.13;;;5.90;99.90;;;;;;5052291;28;20230;-61
2024/04/03 04:37:17;;;;;;;0.87;0.80;;;5.90;99.90;;;;;;5051912;28;20610;-62
2024/04/03 04:39:44;;;;;;;0.80;0.80;;;5.90;99.90;;;;;;5051169;28;20203;-61
2024/04/03 04:42:11;;;;;;;0.70;0.60;;;5.90;99.90;;;;;;5053780;28;20291;-61
2024/04/03 04:44:37;;;;;;;0.97;0.70;;;5.90;99.90;;;;;;5057601;28;20261;-61
2024/04/03 04:47:05;;;;;;;2.20;1.00;;;5.90;99.90;;;;;;5054113;28;20200;-61
2024/04/03 04:49:31;;;;;;;2.83;0.57;;;6.00;99.90;;;;;;5053309;28;20333;-61
2024/04/03 04:51:58;;;;;;;0.80;0.40;;;6.00;99.90;;;;;;5052217;28;20198;-61
2024/04/03 04:54:24;;;;;;;0.50;0.50;;;6.10;99.90;;;;;;5051623;28;20304;-61
2024/04/03 04:56:51;;;;;;;0.50;0.50;;;6.20;99.90;;;;;;5052169;28;20193;-62
2024/04/03 04:59:18;;;;;;;0.73;0.50;;;6.20;99.90;;;;;;5050946;28;20261;-61
2024/04/03 05:01:45;;;;;;;1.90;0.50;;;6.20;99.90;;;;;;5053518;28;20199;-61
2024/04/03 05:04:13;;;;;;;0.60;0.60;;;6.30;99.90;;;;;;5057142;28;20205;-61
2024/04/03 05:06:40;;;;;;;0.60;0.60;;;6.30;99.90;;;;;;5052517;28;20281;-61
2024/04/03 05:09:06;;;;;;;0.50;0.50;;;6.30;99.90;;;;;;5051103;28;20274;-61
2024/04/03 05:11:34;;;;;;;0.50;0.50;;;6.30;99.90;;;;;;5052033;28;20193;-62
2024/04/03 05:14:00;;;;;;;1.60;1.00;;;6.40;99.90;;;;;;5052477;28;20261;-61
2024/04/03 05:16:29;;;;;;;1.60;0.63;;;6.40;99.90;;;;;;5051598;28;20225;-61
2024/04/03 05:18:56;;;;;;;2.30;0.80;;;6.50;99.90;;;;;;5054822;28;20240;-62
2024/04/03 05:21:23;;;;;;;0.80;0.63;;;6.50;99.90;;;;;;5044680;28;20211;-62
2024/04/03 05:23:51;;;;;;;5.70;1.27;;;6.50;99.90;;;;;;5052004;28;20309;-61
2024/04/03 05:26:17;;;;;;;0.77;0.77;;;6.60;99.90;;;;;;5052924;28;20227;-61
2024/04/03 05:28:44;;;;;;;2.10;0.57;;;6.70;99.90;;;;;;5050754;28;20200;-61
2024/04/03 05:31:13;;;;;;;1.63;1.03;;;6.70;99.90;;;;;;5050755;28;20202;-62
2024/04/03 05:33:41;;;;;;;1.43;1.03;;;6.70;99.90;;;;;;5051252;28;20259;-61
2024/04/03 05:36:08;;;;;;;3.13;0.93;;;6.80;99.90;;;;;;5056501;28;20228;-61
2024/04/03 05:38:37;;;;;;;3.03;0.77;;;6.90;99.90;;;;;;5051071;28;20200;-61
2024/04/03 05:41:03;;;;;;;1.10;0.80;;;7.10;99.90;;;;;;5056383;28;20199;-62
2024/04/03 05:43:31;;;;;;;2.80;1.37;;;7.10;99.90;;;;;;5048952;28;20689;-62
2024/04/03 05:45:57;;;;;;;4.37;1.10;;;7.00;99.90;;;;;;5048843;28;20280;-62
2024/04/03 05:48:26;;;;;;;1.77;0.80;;;7.00;99.90;;;;;;5050895;28;20198;-62
2024/04/03 05:51:02;;;;;;;1.73;1.10;;;6.90;99.90;;;;;;5043455;28;20196;-61
2024/04/03 05:53:29;;;;;;;1.40;1.40;;;7.00;99.90;;;;;;5046875;28;20211;-61
2024/04/03 05:55:58;;;;;;;1.57;1.47;;;7.10;99.90;;;;;;5065062;28;20220;-61
2024/04/03 05:58:26;;;;;;;3.57;2.20;;;7.10;99.90;;;;;;5054420;28;20242;-61
2024/04/03 06:00:52;;;;;;;1.73;1.60;;;7.30;99.90;;;;;;5050546;28;20198;-61
2024/04/03 06:03:19;;;;;;;2.00;1.53;;;7.30;99.90;;;;;;5053457;28;20230;-61
2024/04/03 06:05:45;;;;;;;1.33;1.00;;;7.30;99.90;;;;;;5054891;28;20226;-61
2024/04/03 06:08:12;;;;;;;1.43;1.10;;;7.30;99.90;;;;;;5054268;28;20204;-62
2024/04/03 06:10:38;;;;;;;4.00;0.90;;;7.30;99.90;;;;;;5054047;28;20260;-62
2024/04/03 06:13:07;;;;;;;3.67;1.10;;;7.30;99.90;;;;;;5055069;28;20219;-61
2024/04/03 06:15:33;;;;;;;1.43;0.70;;;7.20;99.90;;;;;;5054773;28;20276;-61
2024/04/03 06:18:00;;;;;;;2.00;0.80;;;7.20;99.90;;;;;;5054278;28;20191;-61
2024/04/03 06:20:26;;;;;;;2.40;0.60;;;7.20;99.90;;;;;;5054659;28;20657;-62
2024/04/03 06:22:54;;;;;;;0.97;0.80;;;7.30;99.90;;;;;;5055090;28;20214;-61
2024/04/03 06:25:21;;;;;;;1.10;1.03;;;7.20;99.90;;;;;;5054788;28;20271;-61
2024/04/03 06:27:52;;;;;;;10.13;4.40;;;7.20;99.90;;;;;;5054727;28;20214;-60
2024/04/03 06:30:19;;;;;;;8.07;4.93;;;7.30;99.90;;;;;;5054462;28;20208;-61
2024/04/03 06:32:46;;;;;;;22.97;9.73;;;7.40;99.90;;;;;;5054757;28;20273;-61
2024/04/03 06:35:12;;;;;;;27.23;11.57;;;7.30;99.90;;;;;;5054409;28;20224;-61
2024/04/03 06:37:40;;;;;;;21.97;9.20;;;7.40;99.90;;;;;;5053838;28;20194;-61
2024/04/03 06:40:08;;;;;;;10.77;9.83;;;7.50;99.90;;;;;;5054671;28;20303;-61
2024/04/03 06:42:35;;;;;;;16.27;14.90;;;7.50;99.90;;;;;;5054667;28;20196;-61
2024/04/03 06:45:02;;;;;;;12.53;11.53;;;7.50;99.90;;;;;;5062395;28;20268;-60
2024/04/03 06:47:31;;;;;;;6.37;5.80;;;7.50;99.90;;;;;;5052306;28;20602;-61
2024/04/03 06:49:57;;;;;;;8.20;5.07;;;7.60;99.90;;;;;;5054079;28;20651;-61
2024/04/03 06:52:25;;;;;;;13.77;5.97;;;7.70;99.90;;;;;;5054522;28;20725;-61
2024/04/03 06:54:51;;;;;;;13.20;6.73;;;7.80;99.90;;;;;;5054521;28;20269;-61
2024/04/03 06:57:18;;;;;;;15.33;7.23;;;7.90;99.90;;;;;;5054064;28;20666;-61
2024/04/03 06:59:44;;;;;;;15.17;7.33;;;7.90;99.90;;;;;;5054276;28;20207;-61
2024/04/03 07:02:11;;;;;;;14.13;7.77;;;8.00;99.90;;;;;;5053555;28;20199;-61
2024/04/03 07:04:38;;;;;;;15.57;6.00;;;8.10;99.90;;;;;;5053439;28;20302;-61
2024/04/03 07:07:08;;;;;;;10.70;5.57;;;8.20;99.90;;;;;;5053907;28;20660;-61
2024/04/03 07:09:34;;;;;;;7.23;4.63;;;8.40;99.90;;;;;;5052877;28;20754;-62
2024/04/03 07:12:01;;;;;;;11.37;5.53;;;8.40;99.90;;;;;;5053611;28;20283;-61
2024/04/03 07:14:27;;;;;;;9.47;5.33;;;8.50;99.90;;;;;;5053547;28;20219;-61
2024/04/03 07:16:53;;;;;;;11.27;5.03;;;8.50;99.90;;;;;;5045825;28;20256;-61
2024/04/03 07:19:19;;;;;;;8.10;4.13;;;8.60;99.90;;;;;;5058356;28;20262;-62
2024/04/03 07:21:48;;;;;;;3.47;1.87;;;8.70;99.90;;;;;;5053367;28;20197;-61
2024/04/03 07:24:14;;;;;;;1.83;1.70;;;8.80;99.90;;;;;;5053865;28;20204;-61
2024/04/03 07:26:41;;;;;;;5.03;1.33;;;8.90;99.90;;;;;;5053915;28;20196;-61
2024/04/03 07:29:08;;;;;;;0.90;0.90;;;8.80;99.90;;;;;;5052494;28;20295;-61
2024/04/03 07:31:35;;;;;;;0.70;0.70;;;8.70;99.90;;;;;;5053556;28;20235;-62
2024/04/03 07:34:01;;;;;;;1.10;0.80;;;8.70;99.90;;;;;;5053570;28;20766;-61
2024/04/03 07:36:28;;;;;;;0.73;0.63;;;8.70;99.90;;;;;;5053934;28;20223;-61
2024/04/03 07:38:56;;;;;;;3.10;0.70;;;8.50;99.90;;;;;;5052614;28;20249;-61
2024/04/03 07:41:24;;;;;;;0.80;0.80;;;8.50;99.90;;;;;;5053597;28;20211;-61
2024/04/03 07:43:51;;;;;;;1.70;0.80;;;8.50;99.90;;;;;;5051172;28;20271;-61
2024/04/03 07:46:19;;;;;;;2.27;1.00;;;8.60;99.90;;;;;;5058349;28;20221;-61
2024/04/03 07:48:45;;;;;;;1.53;1.07;;;8.70;99.90;;;;;;5051247;28;20210;-61
2024/04/03 07:51:12;;;;;;;2.27;1.10;;;8.90;99.90;;;;;;5053338;28;20666;-61
2024/04/03 07:53:38;;;;;;;1.10;1.00;;;8.90;99.90;;;;;;5053676;28;20227;-61
2024/04/03 07:56:07;;;;;;;1.43;1.10;;;9.00;99.90;;;;;;5053145;28;20248;-61
2024/04/03 07:58:34;;;;;;;8.00;1.83;;;9.20;99.90;;;;;;5051810;28;20204;-62
2024/04/03 08:01:02;;;;;;;2.53;0.97;;;9.40;99.90;;;;;;5049590;28;20217;-62
2024/04/03 08:03:28;;;;;;;1.30;1.00;;;9.50;99.90;;;;;;5050150;28;20815;-62
2024/04/03 08:05:55;;;;;;;1.50;1.13;;;9.40;99.90;;;;;;5048436;28;20225;-62
2024/04/03 08:08:25;;;;;;;3.23;2.23;;;9.50;99.90;;;;;;5051635;28;20204;-62
2024/04/03 08:10:52;;;;;;;2.07;1.60;;;9.70;99.90;;;;;;5052359;28;20282;-61
2024/04/03 08:13:20;;;;;;;4.43;1.43;;;9.70;99.90;;;;;;5051458;28;20255;-63
2024/04/03 08:15:47;;;;;;;2.03;1.70;;;9.50;99.90;;;;;;5052898;28;20307;-61
2024/04/03 08:18:13;;;;;;;3.50;2.40;;;9.40;99.90;;;;;;5050913;28;20204;-61
2024/04/03 08:20:40;;;;;;;1.77;1.67;;;9.40;99.90;;;;;;5052421;28;20247;-62
2024/04/03 08:23:06;;;;;;;4.73;3.17;;;9.60;99.90;;;;;;5052163;28;20219;-62
2024/04/03 08:25:36;;;;;;;3.80;3.03;;;9.80;99.90;;;;;;5052960;28;20273;-62
2024/04/03 08:28:02;;;;;;;0.90;0.90;;;10.00;99.90;;;;;;5058454;28;20223;-62
2024/04/03 08:30:34;;;;;;;2.80;1.43;;;10.20;99.90;;;;;;5052303;28;20204;-62
2024/04/03 08:32:59;;;;;;;1.30;1.20;;;10.40;99.90;;;;;;5044853;28;20261;-62
2024/04/03 08:35:26;;;;;;;1.53;1.20;;;10.80;99.90;;;;;;5050396;28;20480;-61
2024/04/03 08:37:52;;;;;;;0.90;0.80;;;11.60;99.90;;;;;;5051750;28;20258;-61
2024/04/03 08:40:22;;;;;;;1.03;1.03;;;12.20;99.90;;;;;;5051133;28;20599;-61
2024/04/03 08:42:50;;;;;;;2.57;0.90;;;12.70;99.90;;;;;;5046036;28;20254;-61
2024/04/03 08:45:24;;;;;;;1.93;0.80;;;13.50;99.90;;;;;;5045138;28;20226;-61
2024/04/03 08:47:58;;;;;;;0.57;0.57;;;14.20;99.90;;;;;;5046467;28;20201;-61
2024/04/03 08:50:26;;;;;;;1.07;0.77;;;14.70;99.90;;;;;;5047679;28;20199;-62
2024/04/03 08:52:53;;;;;;;1.33;0.63;;;15.50;99.90;;;;;;5042793;28;20259;-62
2024/04/03 08:55:20;;;;;;;1.30;0.80;;;15.50;99.90;;;;;;5050860;28;20229;-67
2024/04/03 08:57:46;;;;;;;0.70;0.70;;;15.40;99.90;;;;;;5041541;28;20264;-67
2024/04/03 09:00:14;;;;;;;0.47;0.47;;;15.20;99.90;;;;;;5045324;28;20276;-67
2024/04/03 09:02:40;;;;;;;1.00;1.00;;;15.10;99.90;;;;;;5041030;28;20205;-66
2024/04/03 09:05:11;;;;;;;1.00;1.00;;;15.20;99.90;;;;;;5047689;28;20308;-68
2024/04/03 09:07:37;;;;;;;0.70;0.70;;;15.90;99.90;;;;;;5041816;28;20202;-68
2024/04/03 09:10:05;;;;;;;1.10;1.00;;;16.00;99.90;;;;;;5052911;28;20194;-69
2024/04/03 09:12:31;;;;;;;0.80;0.80;;;16.00;99.90;;;;;;5041318;28;20709;-70
2024/04/03 09:15:07;;;;;;;2.50;0.40;;;15.50;99.90;;;;;;5045441;28;20715;-76
2024/04/03 09:17:32;;;;;;;0.70;0.70;;;15.00;99.90;;;;;;5039422;28;20620;-74
2024/04/03 09:19:59;;;;;;;0.60;0.60;;;14.70;99.90;;;;;;5036348;28;20256;-72
2024/04/03 09:22:27;;;;;;;0.80;0.77;;;14.30;99.90;;;;;;5050656;28;20201;-73
2024/04/03 09:24:55;;;;;;;0.70;0.70;;;13.80;99.90;;;;;;5041548;28;20302;-69
2024/04/03 09:27:21;;;;;;;1.53;0.83;;;13.60;99.90;;;;;;5039272;28;20205;-71
2024/04/03 09:29:53;;;;;;;1.07;0.40;;;13.40;99.90;;;;;;5040370;28;20624;-70
2024/04/03 09:32:19;;;;;;;0.93;0.50;;;13.50;99.90;;;;;;5039055;28;20296;-69
2024/04/03 09:34:47;;;;;;;0.50;0.50;;;13.50;99.90;;;;;;5049332;28;20313;-66
2024/04/03 09:37:13;;;;;;;1.27;0.70;;;13.40;99.90;;;;;;5050469;28;20205;-66
2024/04/03 09:39:41;;;;;;;0.50;0.50;;;13.60;99.90;;;;;;5048386;28;20565;-77
2024/04/03 09:42:10;;;;;;;1.43;0.80;;;14.00;99.90;;;;;;5052925;28;20200;-72
2024/04/03 09:44:38;;;;;;;1.50;0.60;;;14.60;99.90;;;;;;5050974;28;20300;-74
2024/04/03 09:47:13;;;;;;;0.80;0.80;;;14.80;99.90;;;;;;5046557;28;20324;-69
2024/04/03 09:49:45;;;;;;;0.60;0.60;;;14.70;99.90;;;;;;5038081;28;20290;-70
2024/04/03 09:52:11;;;;;;;0.70;0.50;;;14.90;99.90;;;;;;5052008;28;20202;-69
2024/04/03 09:54:41;;;;;;;1.33;0.60;;;14.90;99.90;;;;;;5041163;28;20263;-68
2024/04/03 09:57:07;;;;;;;1.27;0.50;;;15.00;99.90;;;;;;5044077;28;20205;-68
2024/04/03 09:59:37;;;;;;;0.50;0.50;;;15.00;99.90;;;;;;5036871;28;20227;-68
2024/04/03 10:02:03;;;;;;;0.97;0.60;;;14.90;99.90;;;;;;5043638;28;20210;-67
2024/04/03 10:04:49;;;;;;;0.97;0.50;;;14.90;99.90;;;;;;5047197;28;20248;-67
2024/04/03 10:07:17;;;;;;;0.50;0.50;;;14.90;99.90;;;;;;5034884;28;20236;-69
2024/04/03 10:09:51;;;;;;;1.57;0.60;;;14.60;99.90;;;;;;5039219;28;20277;-66
2024/04/03 10:12:21;;;;;;;1.13;1.03;;;14.50;99.90;;;;;;5042479;28;20263;-68
2024/04/03 10:14:56;;;;;;;0.83;0.60;;;14.50;99.90;;;;;;5039695;28;20222;-68
2024/04/03 10:17:23;;;;;;;2.77;0.70;;;14.50;99.90;;;;;;5041912;28;20198;-66
2024/04/03 10:19:58;;;;;;;0.70;0.70;;;14.80;99.90;;;;;;5034935;28;20253;-68
2024/04/03 10:22:28;;;;;;;0.53;0.53;;;14.90;99.90;;;;;;5050345;28;20553;-65
2024/04/03 10:24:57;;;;;;;1.57;0.60;;;14.70;99.90;;;;;;5044539;28;20217;-65
2024/04/03 10:27:23;;;;;;;4.33;0.70;;;14.90;99.90;;;;;;5042909;28;20728;-65
2024/04/03 10:30:00;;;;;;;0.97;0.50;;;15.10;99.90;;;;;;5053586;28;20193;-60
2024/04/03 10:32:27;;;;;;;0.60;0.60;;;15.30;99.90;;;;;;5050103;28;20216;-60
2024/04/03 10:34:56;;;;;;;0.67;0.67;;;15.40;99.90;;;;;;5055897;28;20249;-60
2024/04/03 10:37:22;;;;;;;0.57;0.57;;;15.50;99.90;;;;;;5056217;28;20205;-60
2024/04/03 10:39:52;;;;;;;2.60;0.70;;;15.30;99.90;;;;;;5051224;28;20274;-60
2024/04/03 10:42:19;;;;;;;1.13;0.37;;;15.30;99.90;;;;;;5049524;28;20206;-60
2024/04/03 10:44:46;;;;;;;1.47;0.60;;;15.40;99.90;;;;;;5053993;28;20222;-65
2024/04/03 10:47:13;;;;;;;0.47;0.43;;;15.40;99.90;;;;;;5053376;28;20727;-64
2024/04/03 10:49:41;;;;;;;0.40;0.40;;;15.50;99.90;;;;;;5053975;28;20193;-65
2024/04/03 10:52:07;;;;;;;1.80;0.40;;;15.50;99.90;;;;;;5054111;28;20213;-66
2024/04/03 10:54:34;;;;;;;0.70;0.70;;;15.50;99.90;;;;;;5053584;28;20240;-67
2024/04/03 10:57:01;;;;;;;1.83;0.50;;;15.30;99.90;;;;;;5054472;28;20240;-67
2024/04/03 10:59:29;;;;;;;2.83;0.67;;;15.30;99.90;;;;;;5053610;28;20202;-68
2024/04/03 11:01:55;;;;;;;0.40;0.40;;;14.90;99.90;;;;;;5054114;28;20248;-67
2024/04/03 11:04:26;;;;;;;0.93;0.33;;;14.70;99.90;;;;;;5052777;28;20608;-67
2024/04/03 11:06:53;;;;;;;0.47;0.40;;;14.80;99.90;;;;;;5052069;28;20211;-65
2024/04/03 11:09:20;;;;;;;1.43;0.63;;;14.70;99.90;;;;;;5051913;28;20201;-69
2024/04/03 11:11:52;;;;;;;0.83;0.60;;;14.70;99.90;;;;;;5053689;28;20558;-70
2024/04/03 11:14:23;;;;;;;0.83;0.60;;;14.50;99.90;;;;;;5053490;28;20225;-70
2024/04/03 11:16:52;;;;;;;0.90;0.40;;;14.50;99.90;;;;;;5054191;28;20876;-69
2024/04/03 11:19:19;;;;;;;0.67;0.37;;;14.40;99.90;;;;;;5052386;28;20205;-68
2024/04/03 11:21:44;;;;;;;0.60;0.60;;;14.40;99.90;;;;;;5054042;28;20205;-68
2024/04/03 11:24:12;;;;;;;1.70;0.60;;;14.20;99.90;;;;;;5054730;28;20544;-67
2024/04/03 11:26:38;;;;;;;0.60;0.40;;;14.30;99.90;;;;;;5053297;28;20225;-65
2024/04/03 11:29:26;;;;;;;0.70;0.60;;;14.20;99.90;;;;;;5052667;28;20244;-65
2024/04/03 11:31:54;;;;;;;3.50;0.60;;;13.90;99.90;;;;;;5053142;28;20263;-64
2024/04/03 11:34:21;;;;;;;0.57;0.57;;;13.80;99.90;;;;;;5053554;28;20226;-67
2024/04/03 11:36:47;;;;;;;1.47;0.70;;;13.80;99.90;;;;;;5053193;28;20211;-64
2024/04/03 11:39:18;;;;;;;0.87;0.83;;;13.60;99.90;;;;;;5051623;28;20547;-67
2024/04/03 11:41:44;;;;;;;0.80;0.80;;;13.30;99.90;;;;;;5053061;28;20292;-68
2024/04/03 11:44:11;;;;;;;1.67;1.07;;;13.40;99.90;;;;;;5053140;28;20279;-67
2024/04/03 11:46:37;;;;;;;1.10;1.10;;;13.30;99.90;;;;;;5053235;28;20226;-68
2024/04/03 11:49:05;;;;;;;2.37;1.17;;;13.20;99.90;;;;;;5047462;28;20716;-65
2024/04/03 11:51:31;;;;;;;1.03;0.90;;;13.30;99.90;;;;;;5050992;28;20251;-67
2024/04/03 11:53:58;;;;;;;0.90;0.90;;;13.30;99.90;;;;;;5042526;28;20716;-66
2024/04/03 11:56:25;;;;;;;1.73;0.90;;;13.20;99.90;;;;;;5052730;28;20297;-66
2024/04/03 11:58:52;;;;;;;0.80;0.73;;;13.20;99.90;;;;;;5049734;28;20614;-67
2024/04/03 12:01:18;;;;;;;1.03;1.03;;;13.20;99.90;;;;;;5052629;28;20620;-62
2024/04/03 12:03:45;;;;;;;0.67;0.67;;;13.30;99.90;;;;;;5052672;28;20205;-63
2024/04/03 12:06:12;;;;;;;0.60;0.60;;;13.20;99.90;;;;;;5052621;28;20233;-67
2024/04/03 12:08:40;;;;;;;1.07;0.97;;;13.40;99.90;;;;;;5052401;28;20209;-66
2024/04/03 12:11:07;;;;;;;2.40;1.70;;;13.40;99.90;;;;;;5053055;28;20254;-70
2024/04/03 12:13:34;;;;;;;1.47;1.20;;;13.20;99.90;;;;;;5052974;28;20196;-66
2024/04/03 12:16:00;;;;;;;1.47;1.37;;;12.90;99.90;;;;;;5052687;28;20275;-71
2024/04/03 12:18:37;;;;;;;1.83;1.73;;;12.90;99.90;;;;;;5051945;28;20204;-61
2024/04/03 12:21:04;;;;;;;1.60;1.50;;;12.70;99.90;;;;;;5050827;28;20207;-61
2024/04/03 12:23:33;;;;;;;1.63;1.63;;;12.50;99.90;;;;;;5052533;28;20263;-61
2024/04/03 12:25:59;;;;;;;1.23;1.13;;;12.50;99.90;;;;;;5052081;28;20247;-61
2024/04/03 12:28:25;;;;;;;1.40;1.40;;;12.50;99.90;;;;;;5054123;28;20204;-60
2024/04/03 12:30:53;;;;;;;2.60;1.73;;;12.50;99.90;;;;;;5052149;28;20206;-60
2024/04/03 12:33:20;;;;;;;2.13;1.93;;;12.60;99.90;;;;;;5052362;28;20239;-60
2024/04/03 12:35:47;;;;;;;1.37;1.30;;;12.60;99.90;;;;;;5052075;28;20371;-60
2024/04/03 12:38:14;;;;;;;1.20;1.20;;;12.60;99.90;;;;;;5051304;28;20200;-61
2024/04/03 12:40:41;;;;;;;1.53;1.43;;;12.50;99.90;;;;;;5052844;28;20202;-60
2024/04/03 12:43:10;;;;;;;1.43;1.20;;;12.40;99.90;;;;;;5052386;28;20214;-61
2024/04/03 12:45:36;;;;;;;1.30;1.13;;;12.50;99.90;;;;;;5052234;28;20293;-61
2024/04/03 12:48:04;;;;;;;2.73;1.20;;;12.50;99.90;;;;;;5051159;28;20201;-61
2024/04/03 12:50:30;;;;;;;1.43;1.33;;;12.30;99.90;;;;;;5051595;28;20550;-60
2024/04/03 12:52:57;;;;;;;1.33;1.03;;;12.20;99.90;;;;;;5052034;28;20553;-60
2024/04/03 12:55:23;;;;;;;3.87;1.47;;;12.20;99.90;;;;;;5052294;28;20697;-61
2024/04/03 12:57:55;;;;;;;2.60;2.40;;;12.20;99.90;;;;;;5051614;28;20278;-60